Time;durP1;ratioP1;P1;durP2;ratioP2;P2;SDS_P1;SDS_P2;PMS_P1;PMS_P2;Temp;Humidity;BMP_temperature;BMP_pressure;BME280_temperature;BME280_humidity;BME280_pressure;Samples;Min_cycle;Max_cycle;Signal;HPM_P1;HPM_P2
2023/04/25 00:01:12;;;;;;;3.10;1.50;;;;;;;;;;4998698;28;20084;-95
2023/04/25 00:03:39;;;;;;;4.03;1.73;;;;;;;;;;4998822;28;20388;-96
2023/04/25 00:06:20;;;;;;;2.67;1.48;;;;;;;;;;4998597;28;20113;-96
2023/04/25 00:08:49;;;;;;;3.35;1.45;;;;;;;;;;4998456;28;20034;-96
2023/04/25 00:11:17;;;;;;;4.47;1.88;;;;;;;;;;4998276;28;20026;-96
2023/04/25 00:13:51;;;;;;;2.28;1.38;;;;;;;;;;4998331;28;20172;-95
2023/04/25 00:16:18;;;;;;;4.00;1.70;;;;;;;;;;4998300;28;20032;-95
2023/04/25 00:18:52;;;;;;;1.92;1.50;;;;;;;;;;4998152;28;20022;-96
2023/04/25 00:21:20;;;;;;;4.47;1.80;;;;;;;;;;4998703;28;20387;-95
2023/04/25 00:23:49;;;;;;;1.95;1.48;;;;;;;;;;4998272;28;20030;-96
2023/04/25 00:26:30;;;;;;;5.03;1.75;;;;;;;;;;4998818;28;20021;-95
2023/04/25 00:28:59;;;;;;;3.28;1.55;;;;;;;;;;4998408;28;20030;-95
2023/04/25 00:31:40;;;;;;;6.60;1.70;;;;;;;;;;4998197;28;20064;-95
2023/04/25 00:34:08;;;;;;;3.40;1.55;;;;;;;;;;4998135;28;20477;-96
2023/04/25 00:36:42;;;;;;;2.70;1.63;;;;;;;;;;4998013;28;20034;-96
2023/04/25 00:39:11;;;;;;;3.75;1.90;;;;;;;;;;4997755;28;20029;-96
2023/04/25 00:41:40;;;;;;;2.45;1.52;;;;;;;;;;4998012;28;20030;-96
2023/04/25 00:44:11;;;;;;;4.15;1.52;;;;;;;;;;4998131;28;20026;-95
2023/04/25 00:46:40;;;;;;;2.13;1.33;;;;;;;;;;4998288;28;20025;-96
2023/04/25 00:49:13;;;;;;;4.20;1.40;;;;;;;;;;4998409;28;20076;-95
2023/04/25 00:51:40;;;;;;;3.55;1.70;;;;;;;;;;4997726;28;20037;-96
2023/04/25 00:54:09;;;;;;;3.90;1.80;;;;;;;;;;4997784;28;20018;-96
2023/04/25 00:56:38;;;;;;;2.42;1.38;;;;;;;;;;4997704;28;20032;-96
2023/04/25 00:59:09;;;;;;;3.38;1.60;;;;;;;;;;4997900;28;20022;-96
2023/04/25 01:04:30;;;;;;;3.65;1.40;;;;;;;;;;5004392;28;20022;-95
2023/04/25 01:06:58;;;;;;;2.20;1.50;;;;;;;;;;4997507;28;20029;-96
2023/04/25 01:09:27;;;;;;;2.88;1.30;;;;;;;;;;4997454;28;20025;-95
2023/04/25 01:14:40;;;;;;;4.03;1.50;;;;;;;;;;5004662;28;20100;-94
2023/04/25 01:17:09;;;;;;;2.35;1.30;;;;;;;;;;4997733;28;20030;-95
2023/04/25 01:19:50;;;;;;;3.10;1.35;;;;;;;;;;4997721;28;20028;-95
2023/04/25 01:22:19;;;;;;;2.88;1.33;;;;;;;;;;4997647;28;20021;-96
2023/04/25 01:25:00;;;;;;;3.05;1.52;;;;;;;;;;4997414;28;20026;-95
2023/04/25 01:27:30;;;;;;;4.07;1.55;;;;;;;;;;4997402;28;20026;-95
2023/04/25 01:29:58;;;;;;;3.22;1.58;;;;;;;;;;4997704;28;20033;-95
2023/04/25 01:32:38;;;;;;;3.65;1.73;;;;;;;;;;5001313;28;20030;-96
2023/04/25 01:35:11;;;;;;;3.78;1.20;;;;;;;;;;5001464;28;20075;-95
2023/04/25 01:37:41;;;;;;;3.50;1.60;;;;;;;;;;5001431;28;20051;-96
2023/04/25 01:40:11;;;;;;;2.03;1.48;;;;;;;;;;5002029;28;20033;-95
2023/04/25 01:42:40;;;;;;;2.22;1.50;;;;;;;;;;5001567;28;20030;-96
2023/04/25 01:45:07;;;;;;;3.95;1.60;;;;;;;;;;5001355;28;20022;-95
2023/04/25 01:48:02;;;;;;;4.05;1.60;;;;;;;;;;5001596;28;20029;-95
2023/04/25 01:50:20;;;;;;;3.40;1.35;;;;;;;;;;5015067;28;20045;-95
2023/04/25 01:52:49;;;;;;;3.70;1.60;;;;;;;;;;5001271;28;20026;-95
2023/04/25 01:55:20;;;;;;;3.28;1.67;;;;;;;;;;5000764;28;20036;-94
2023/04/25 01:58:01;;;;;;;3.30;1.87;;;;;;;;;;5001388;28;20037;-95
2023/04/25 02:00:30;;;;;;;5.30;1.48;;;;;;;;;;5001284;28;20088;-95
2023/04/25 02:02:58;;;;;;;2.63;1.35;;;;;;;;;;5001555;28;20476;-96
2023/04/25 02:05:29;;;;;;;2.17;1.40;;;;;;;;;;5001004;28;20045;-95
2023/04/25 02:07:58;;;;;;;5.40;1.50;;;;;;;;;;5000744;28;20022;-95
2023/04/25 02:10:32;;;;;;;3.60;1.45;;;;;;;;;;5000427;28;20157;-95
2023/04/25 02:12:58;;;;;;;3.03;1.40;;;;;;;;;;5000341;28;20416;-95
2023/04/25 02:15:32;;;;;;;2.30;1.73;;;;;;;;;;5000841;28;20034;-95
2023/04/25 02:18:01;;;;;;;5.10;1.67;;;;;;;;;;5000744;28;20049;-94
2023/04/25 02:20:30;;;;;;;6.50;1.55;;;;;;;;;;5001430;28;20508;-96
2023/04/25 02:22:59;;;;;;;3.53;1.42;;;;;;;;;;5000535;28;20473;-93
2023/04/25 02:25:40;;;;;;;4.65;1.60;;;;;;;;;;5000406;28;20030;-95
2023/04/25 02:28:08;;;;;;;2.22;1.23;;;;;;;;;;5000833;28;20022;-95
2023/04/25 02:30:42;;;;;;;3.90;1.50;;;;;;;;;;5000377;28;20030;-94
2023/04/25 02:33:22;;;;;;;3.88;1.42;;;;;;;;;;5001382;28;20057;-95
2023/04/25 02:35:50;;;;;;;1.70;1.40;;;;;;;;;;5000318;28;20058;-95
2023/04/25 02:38:19;;;;;;;2.83;1.60;;;;;;;;;;5000792;28;20029;-95
2023/04/25 02:40:50;;;;;;;2.45;1.48;;;;;;;;;;5000130;28;20036;-95
2023/04/25 02:43:31;;;;;;;4.85;1.38;;;;;;;;;;4999386;28;20033;-95
2023/04/25 02:45:59;;;;;;;4.35;1.65;;;;;;;;;;5000570;28;20532;-95
2023/04/25 02:48:28;;;;;;;5.00;1.73;;;;;;;;;;5000191;28;20032;-95
2023/04/25 02:51:01;;;;;;;2.70;1.50;;;;;;;;;;4999879;28;20044;-96
2023/04/25 02:53:32;;;;;;;2.58;1.38;;;;;;;;;;4999794;28;20160;-94
2023/04/25 02:56:01;;;;;;;3.50;1.55;;;;;;;;;;4999916;28;20032;-96
2023/04/25 02:58:30;;;;;;;3.00;1.60;;;;;;;;;;5000170;28;20018;-95
2023/04/25 03:00:58;;;;;;;5.75;1.50;;;;;;;;;;5000072;28;20026;-96
2023/04/25 03:03:29;;;;;;;5.75;1.60;;;;;;;;;;4999752;28;20508;-95
2023/04/25 03:05:58;;;;;;;4.22;1.38;;;;;;;;;;5000005;28;20022;-95
2023/04/25 03:08:32;;;;;;;2.85;1.48;;;;;;;;;;4999856;28;20113;-95
2023/04/25 03:10:58;;;;;;;2.83;1.60;;;;;;;;;;4999793;28;20427;-95
2023/04/25 03:13:32;;;;;;;4.20;1.55;;;;;;;;;;4999391;28;20078;-96
2023/04/25 03:16:01;;;;;;;3.22;1.40;;;;;;;;;;4999884;28;20378;-96
2023/04/25 03:18:31;;;;;;;3.63;1.40;;;;;;;;;;4999993;28;20034;-94
2023/04/25 03:21:00;;;;;;;3.42;1.40;;;;;;;;;;4999734;28;20092;-94
2023/04/25 03:23:53;;;;;;;2.38;1.52;;;;;;;;;;4999562;28;20054;-95
2023/04/25 03:26:19;;;;;;;6.45;1.58;;;;;;;;;;4999465;28;20018;-94
2023/04/25 03:28:50;;;;;;;3.83;1.60;;;;;;;;;;4999143;28;20022;-96
2023/04/25 03:31:29;;;;;;;3.47;1.90;;;;;;;;;;4999365;28;20028;-96
2023/04/25 03:34:00;;;;;;;3.83;2.08;;;;;;;;;;4999272;28;20424;-95
2023/04/25 03:36:29;;;;;;;3.60;1.70;;;;;;;;;;4998998;28;20056;-96
2023/04/25 03:39:00;;;;;;;4.22;2.03;;;;;;;;;;4999268;28;20026;-96
2023/04/25 03:41:29;;;;;;;3.10;1.48;;;;;;;;;;4999120;28;20022;-95
2023/04/25 03:43:58;;;;;;;4.15;1.60;;;;;;;;;;4999464;28;20040;-96
2023/04/25 03:46:32;;;;;;;3.40;1.63;;;;;;;;;;4998847;28;20088;-96
2023/04/25 03:49:01;;;;;;;3.92;1.70;;;;;;;;;;4999835;28;20026;-95
2023/04/25 03:51:30;;;;;;;7.28;1.90;;;;;;;;;;4998975;28;20046;-96
2023/04/25 03:53:59;;;;;;;5.72;1.40;;;;;;;;;;4998828;28;20503;-96
2023/04/25 03:56:28;;;;;;;5.63;2.03;;;;;;;;;;4998801;28;20029;-95
2023/04/25 03:59:02;;;;;;;4.35;1.58;;;;;;;;;;4999280;28;20502;-95
2023/04/25 04:01:31;;;;;;;5.85;1.95;;;;;;;;;;4999706;28;20022;-95
2023/04/25 04:04:00;;;;;;;4.47;1.50;;;;;;;;;;4998507;28;20425;-95
2023/04/25 04:06:28;;;;;;;6.38;1.83;;;;;;;;;;4998571;28;20026;-95
2023/04/25 04:08:59;;;;;;;5.03;1.80;;;;;;;;;;4998715;28;20060;-95
2023/04/25 04:11:28;;;;;;;4.53;1.70;;;;;;;;;;4998528;28;20053;-95
2023/04/25 04:14:02;;;;;;;3.65;1.70;;;;;;;;;;4998603;28;20054;-95
2023/04/25 04:16:28;;;;;;;5.57;1.85;;;;;;;;;;4998557;28;20022;-95
2023/04/25 04:19:02;;;;;;;2.15;1.33;;;;;;;;;;4998409;28;20078;-95
2023/04/25 04:21:28;;;;;;;5.93;1.85;;;;;;;;;;4998124;28;20045;-95
2023/04/25 04:24:00;;;;;;;4.32;1.80;;;;;;;;;;4998116;28;20033;-95
2023/04/25 04:26:31;;;;;;;5.75;2.00;;;;;;;;;;4998413;28;20056;-96
2023/04/25 04:29:00;;;;;;;2.88;1.50;;;;;;;;;;4998687;28;20480;-96
2023/04/25 04:31:29;;;;;;;6.63;2.78;;;;;;;;;;4998262;28;20081;-95
2023/04/25 04:33:58;;;;;;;5.05;1.80;;;;;;;;;;4998158;28;20112;-96
2023/04/25 04:36:30;;;;;;;5.55;2.20;;;;;;;;;;4998046;28;20049;-95
2023/04/25 04:38:58;;;;;;;6.13;1.67;;;;;;;;;;4998213;28;20040;-95
2023/04/25 04:41:42;;;;;;;6.20;1.70;;;;;;;;;;4997957;28;20397;-96
2023/04/25 04:44:12;;;;;;;5.45;1.77;;;;;;;;;;4998011;28;20380;-96
2023/04/25 04:46:41;;;;;;;5.43;1.70;;;;;;;;;;4998246;28;20053;-95
2023/04/25 04:49:10;;;;;;;4.75;2.17;;;;;;;;;;4998316;28;20392;-95
2023/04/25 04:51:54;;;;;;;4.07;1.52;;;;;;;;;;4999181;28;20075;-96
2023/04/25 04:54:20;;;;;;;3.47;1.77;;;;;;;;;;4999828;28;20022;-96
2023/04/25 04:56:50;;;;;;;2.80;1.42;;;;;;;;;;5000814;28;20021;-96
2023/04/25 04:59:19;;;;;;;2.72;1.13;;;;;;;;;;4998985;28;20041;-96
2023/04/25 05:01:53;;;;;;;3.42;1.63;;;;;;;;;;4998646;28;20018;-96
2023/04/25 05:04:19;;;;;;;4.38;1.52;;;;;;;;;;5000445;28;20021;-96
2023/04/25 05:06:53;;;;;;;7.60;2.65;;;;;;;;;;4998267;28;20032;-96
2023/04/25 05:09:19;;;;;;;4.32;1.83;;;;;;;;;;4998476;28;20487;-96
2023/04/25 05:11:50;;;;;;;3.28;1.40;;;;;;;;;;4998415;28;20025;-96
2023/04/25 05:14:19;;;;;;;3.50;1.58;;;;;;;;;;4999338;28;20022;-96
2023/04/25 05:16:53;;;;;;;4.63;1.92;;;;;;;;;;5000284;28;20030;-96
2023/04/25 05:19:19;;;;;;;9.05;2.10;;;;;;;;;;4998457;28;20109;-96
2023/04/25 05:21:53;;;;;;;4.65;1.70;;;;;;;;;;4998259;28;20030;-96
2023/04/25 05:24:19;;;;;;;7.07;1.90;;;;;;;;;;4998774;28;20025;-96
2023/04/25 05:26:58;;;;;;;2.92;1.30;;;;;;;;;;4998467;28;20026;-96
2023/04/25 05:29:53;;;;;;;4.53;1.75;;;;;;;;;;4997792;28;20053;-96
2023/04/25 05:32:11;;;;;;;3.03;1.58;;;;;;;;;;5012118;28;20041;-96
2023/04/25 05:34:41;;;;;;;3.30;1.48;;;;;;;;;;4997899;28;20477;-96
2023/04/25 05:37:11;;;;;;;5.65;1.40;;;;;;;;;;4998972;28;20033;-96
2023/04/25 05:39:39;;;;;;;5.68;1.50;;;;;;;;;;4998334;28;20029;-96
2023/04/25 05:42:13;;;;;;;2.88;1.50;;;;;;;;;;4998231;28;20104;-96
2023/04/25 05:44:39;;;;;;;4.20;1.33;;;;;;;;;;4998854;28;20045;-96
2023/04/25 05:47:29;;;;;;;3.70;1.23;;;;;;;;;;5001832;28;20030;-96
2023/04/25 05:49:52;;;;;;;6.25;1.88;;;;;;;;;;5019501;28;20033;-96
2023/04/25 05:52:31;;;;;;;3.15;1.30;;;;;;;;;;5015883;28;20029;-96
2023/04/25 05:54:59;;;;;;;1.90;1.23;;;;;;;;;;4997769;28;20030;-96
2023/04/25 06:00:22;;;;;;;2.60;1.20;;;;;;;;;;5015955;28;20384;-96
2023/04/25 06:02:51;;;;;;;4.03;1.40;;;;;;;;;;4997758;28;20026;-96
2023/04/25 06:05:21;;;;;;;4.47;1.40;;;;;;;;;;4997815;28;20022;-96
2023/04/25 06:07:49;;;;;;;3.15;1.42;;;;;;;;;;4997726;28;20022;-96
2023/04/25 06:10:23;;;;;;;3.85;1.70;;;;;;;;;;4997997;28;20393;-96
2023/04/25 06:12:51;;;;;;;2.42;1.35;;;;;;;;;;4997244;28;20053;-96
2023/04/25 06:15:20;;;;;;;2.95;1.27;;;;;;;;;;4998410;28;20038;-96
2023/04/25 06:17:49;;;;;;;4.22;1.30;;;;;;;;;;4999802;28;20056;-96
2023/04/25 06:20:24;;;;;;;3.60;1.38;;;;;;;;;;5001228;28;20121;-96
2023/04/25 06:22:51;;;;;;;5.63;1.55;;;;;;;;;;5001637;28;20093;-96
2023/04/25 06:25:20;;;;;;;3.30;1.00;;;;;;;;;;5001332;28;20022;-96
2023/04/25 06:27:59;;;;;;;4.40;1.25;;;;;;;;;;5000824;28;20037;-96
2023/04/25 06:30:32;;;;;;;3.20;1.40;;;;;;;;;;5001143;28;20022;-96
2023/04/25 06:33:01;;;;;;;2.13;1.10;;;;;;;;;;5001328;28;20037;-96
2023/04/25 06:35:30;;;;;;;2.65;1.55;;;;;;;;;;5001265;28;20029;-96
2023/04/25 06:37:59;;;;;;;5.47;1.10;;;;;;;;;;5001461;28;20076;-96
2023/04/25 06:40:32;;;;;;;4.25;1.05;;;;;;;;;;5000995;28;20048;-96
2023/04/25 06:43:01;;;;;;;2.75;1.30;;;;;;;;;;5000797;28;20042;-96
2023/04/25 06:45:30;;;;;;;3.65;1.38;;;;;;;;;;5000712;28;20026;-96
2023/04/25 06:48:09;;;;;;;3.47;1.33;;;;;;;;;;5000629;28;20026;-96
2023/04/25 06:50:40;;;;;;;4.05;1.80;;;;;;;;;;5001184;28;20426;-96
2023/04/25 06:53:21;;;;;;;3.35;1.50;;;;;;;;;;5001698;28;20033;-96
2023/04/25 06:55:50;;;;;;;3.72;1.20;;;;;;;;;;5001045;28;20087;-96
2023/04/25 06:58:18;;;;;;;3.65;1.45;;;;;;;;;;5000803;28;20498;-95
2023/04/25 07:00:52;;;;;;;3.45;1.13;;;;;;;;;;5000462;28;20472;-95
2023/04/25 07:03:21;;;;;;;5.93;1.42;;;;;;;;;;5001037;28;20496;-96
2023/04/25 07:06:03;;;;;;;3.30;1.40;;;;;;;;;;5000696;28;20118;-96
2023/04/25 07:08:32;;;;;;;3.35;1.30;;;;;;;;;;5000874;28;20018;-96
2023/04/25 07:11:00;;;;;;;2.85;1.30;;;;;;;;;;5000679;28;20026;-96
2023/04/25 07:13:41;;;;;;;3.83;1.20;;;;;;;;;;5000536;28;20507;-96
2023/04/25 07:16:10;;;;;;;5.90;1.13;;;;;;;;;;5000849;28;20030;-96
2023/04/25 07:19:03;;;;;;;4.45;1.30;;;;;;;;;;5001724;28;20029;-96
2023/04/25 07:21:32;;;;;;;3.05;1.08;;;;;;;;;;5000621;28;20543;-96
2023/04/25 07:24:01;;;;;;;2.08;1.00;;;;;;;;;;5000644;28;20120;-96
2023/04/25 07:26:30;;;;;;;1.88;1.05;;;;;;;;;;5000255;28;20029;-96
2023/04/25 07:29:01;;;;;;;3.08;0.90;;;;;;;;;;4999351;28;20065;-96
2023/04/25 07:31:30;;;;;;;5.38;1.73;;;;;;;;;;4999701;28;20018;-96
2023/04/25 07:34:03;;;;;;;4.45;1.23;;;;;;;;;;5000177;28;20030;-95
2023/04/25 07:36:32;;;;;;;3.22;1.10;;;;;;;;;;5000353;28;20022;-96
2023/04/25 07:39:01;;;;;;;4.03;1.33;;;;;;;;;;5000275;28;20065;-96
2023/04/25 07:41:31;;;;;;;3.70;1.45;;;;;;;;;;4999770;28;20076;-96
2023/04/25 07:44:00;;;;;;;2.47;1.10;;;;;;;;;;4999369;28;20029;-96
2023/04/25 07:46:41;;;;;;;3.17;1.30;;;;;;;;;;4999689;28;20026;-96
2023/04/25 07:49:09;;;;;;;2.65;1.52;;;;;;;;;;5000009;28;20029;-96
2023/04/25 07:51:43;;;;;;;2.95;1.00;;;;;;;;;;4999808;28;20018;-96
2023/04/25 07:54:30;;;;;;;1.58;1.00;;;;;;;;;;5000667;28;20030;-96
2023/04/25 07:56:59;;;;;;;1.55;0.98;;;;;;;;;;5000120;28;20076;-96
2023/04/25 07:59:33;;;;;;;1.95;1.00;;;;;;;;;;5000199;28;20392;-96
2023/04/25 08:01:59;;;;;;;4.53;1.40;;;;;;;;;;5001603;28;20029;-96
2023/04/25 08:04:33;;;;;;;2.03;1.20;;;;;;;;;;5000135;28;20051;-96
2023/04/25 08:07:02;;;;;;;3.53;1.40;;;;;;;;;;5000682;28;20026;-96
2023/04/25 08:09:34;;;;;;;3.70;1.45;;;;;;;;;;5000457;28;20080;-96
2023/04/25 08:12:01;;;;;;;3.10;1.40;;;;;;;;;;5000700;28;20050;-96
2023/04/25 08:14:35;;;;;;;3.88;1.27;;;;;;;;;;5001028;28;20037;-96
2023/04/25 08:17:03;;;;;;;1.90;1.10;;;;;;;;;;4999721;28;20045;-96
2023/04/25 08:19:31;;;;;;;5.57;1.70;;;;;;;;;;5001563;28;20022;-96
2023/04/25 08:22:00;;;;;;;3.42;1.40;;;;;;;;;;5000298;28;20022;-96
2023/04/25 08:24:31;;;;;;;2.95;1.33;;;;;;;;;;5000624;28;20037;-96
2023/04/25 08:27:00;;;;;;;1.92;1.00;;;;;;;;;;5001362;28;20472;-95
2023/04/25 08:29:29;;;;;;;2.45;1.10;;;;;;;;;;5000083;28;20057;-96
2023/04/25 08:32:01;;;;;;;2.60;1.00;;;;;;;;;;5001447;28;20022;-96
2023/04/25 08:34:32;;;;;;;2.03;0.90;;;;;;;;;;5002819;28;20060;-96
2023/04/25 08:37:00;;;;;;;3.85;1.17;;;;;;;;;;5000550;28;20037;-96
2023/04/25 08:39:29;;;;;;;3.67;1.30;;;;;;;;;;5001167;28;20491;-96
2023/04/25 08:42:00;;;;;;;1.42;0.98;;;;;;;;;;5000295;28;20045;-96
2023/04/25 08:44:40;;;;;;;2.35;1.10;;;;;;;;;;5002000;28;20022;-96
2023/04/25 08:47:30;;;;;;;3.42;1.30;;;;;;;;;;5001626;28;20050;-96
2023/04/25 08:50:13;;;;;;;1.45;0.88;;;;;;;;;;4986322;28;20109;-96
2023/04/25 08:52:52;;;;;;;2.95;1.20;;;;;;;;;;5000319;28;20034;-96
2023/04/25 08:55:21;;;;;;;3.13;1.00;;;;;;;;;;5001417;28;20030;-96
2023/04/25 08:58:14;;;;;;;3.67;1.10;;;;;;;;;;5019252;28;20034;-96
2023/04/25 09:00:41;;;;;;;3.83;1.23;;;;;;;;;;5002400;28;20408;-96
2023/04/25 09:03:20;;;;;;;5.35;1.63;;;;;;;;;;5001480;28;20487;-96
2023/04/25 09:05:50;;;;;;;2.22;1.10;;;;;;;;;;5001689;28;20014;-96
2023/04/25 09:08:23;;;;;;;2.63;1.13;;;;;;;;;;5002227;28;20022;-96
2023/04/25 09:10:52;;;;;;;1.70;1.10;;;;;;;;;;5001722;28;20022;-96
2023/04/25 09:13:30;;;;;;;4.78;1.23;;;;;;;;;;5002143;28;20057;-96
2023/04/25 09:15:59;;;;;;;2.47;1.40;;;;;;;;;;5001251;28;20022;-96
2023/04/25 09:18:33;;;;;;;3.40;1.50;;;;;;;;;;5002390;28;20376;-96
2023/04/25 09:21:12;;;;;;;4.13;1.20;;;;;;;;;;5000018;28;20030;-96
2023/04/25 09:23:42;;;;;;;13.80;1.70;;;;;;;;;;5000609;28;20029;-96
2023/04/25 09:26:21;;;;;;;3.55;1.55;;;;;;;;;;4999763;28;20022;-96
2023/04/25 09:29:12;;;;;;;4.85;1.80;;;;;;;;;;5000431;28;20033;-96
2023/04/25 09:31:40;;;;;;;3.95;2.05;;;;;;;;;;4999801;28;20077;-96
2023/04/25 09:34:09;;;;;;;5.15;1.50;;;;;;;;;;5000112;28;20026;-96
2023/04/25 09:36:43;;;;;;;2.20;1.40;;;;;;;;;;5002632;28;20060;-96
2023/04/25 09:39:23;;;;;;;2.42;1.25;;;;;;;;;;5000752;28;20099;-96
2023/04/25 09:42:01;;;;;;;2.85;1.30;;;;;;;;;;4999324;28;20080;-95
2023/04/25 09:44:31;;;;;;;6.35;1.65;;;;;;;;;;5000473;28;20034;-96
2023/04/25 09:46:59;;;;;;;2.60;1.58;;;;;;;;;;5000567;28;20081;-96
2023/04/25 09:49:33;;;;;;;3.35;1.73;;;;;;;;;;5002359;28;20026;-96
2023/04/25 09:52:00;;;;;;;3.80;1.90;;;;;;;;;;5002986;28;20030;-96
2023/04/25 09:54:33;;;;;;;3.53;1.67;;;;;;;;;;5004051;28;20025;-96
2023/04/25 09:57:11;;;;;;;2.58;1.60;;;;;;;;;;5004005;28;20026;-96
2023/04/25 09:59:42;;;;;;;7.30;4.20;;;;;;;;;;5003939;28;20109;-96
2023/04/25 10:02:11;;;;;;;5.78;2.90;;;;;;;;;;5006966;28;20038;-96
2023/04/25 10:04:41;;;;;;;5.30;2.30;;;;;;;;;;5005297;28;20048;-96
2023/04/25 10:07:22;;;;;;;2.63;1.52;;;;;;;;;;5006341;28;20500;-96
2023/04/25 10:10:03;;;;;;;3.55;1.55;;;;;;;;;;5023716;28;20030;-96
2023/04/25 10:12:33;;;;;;;2.83;1.30;;;;;;;;;;5005185;28;20042;-96
2023/04/25 10:15:04;;;;;;;1.95;1.35;;;;;;;;;;5005415;28;20384;-95
2023/04/25 10:17:33;;;;;;;3.00;1.20;;;;;;;;;;5004010;28;20464;-96
2023/04/25 10:20:05;;;;;;;2.15;1.33;;;;;;;;;;5003495;28;20400;-96
2023/04/25 10:22:53;;;;;;;2.42;1.52;;;;;;;;;;5003856;28;20030;-96
2023/04/25 10:25:20;;;;;;;5.10;1.88;;;;;;;;;;5004179;28;20506;-96
2023/04/25 10:27:54;;;;;;;3.45;2.10;;;;;;;;;;5003465;28;20022;-96
2023/04/25 10:30:20;;;;;;;3.05;1.95;;;;;;;;;;5004201;28;20042;-96
2023/04/25 10:32:51;;;;;;;4.95;2.22;;;;;;;;;;5003725;28;20033;-96
2023/04/25 10:35:31;;;;;;;4.63;2.13;;;;;;;;;;5003706;28;20053;-96
2023/04/25 10:38:13;;;;;;;2.47;1.40;;;;;;;;;;5005957;28;20433;-96
2023/04/25 10:40:42;;;;;;;10.32;6.32;;;;;;;;;;5004460;28;20022;-96
2023/04/25 10:43:29;;;;;;;4.90;2.45;;;;;;;;;;5003506;28;20030;-96
2023/04/25 10:46:14;;;;;;;8.35;2.22;;;;;;;;;;5005133;28;20026;-96
2023/04/25 10:48:50;;;;;;;3.75;2.03;;;;;;;;;;5004769;28;20029;-96
2023/04/25 10:51:23;;;;;;;3.50;1.70;;;;;;;;;;5004400;28;20033;-96
2023/04/25 10:54:08;;;;;;;;;;;;;;;;;;;;;
2023/04/25 10:56:44;;;;;;;7.32;2.10;;;;;;;;;;5022383;28;20101;-96
2023/04/25 10:59:21;;;;;;;2.78;1.70;;;;;;;;;;5007082;28;20037;-96
2023/04/25 11:04:42;;;;;;;4.60;2.28;;;;;;;;;;5012428;28;20026;-96
2023/04/25 11:07:22;;;;;;;3.72;2.63;;;;;;;;;;5004502;28;20097;-96
2023/04/25 11:09:51;;;;;;;5.15;2.90;;;;;;;;;;5005974;28;20057;-96
2023/04/25 11:12:25;;;;;;;3.08;2.15;;;;;;;;;;5005787;28;20045;-96
2023/04/25 11:15:01;;;;;;;5.80;2.90;;;;;;;;;;5004507;28;20030;-96
2023/04/25 11:17:40;;;;;;;4.45;2.78;;;;;;;;;;5003741;28;20021;-96
2023/04/25 11:20:11;;;;;;;6.20;3.80;;;;;;;;;;5003070;28;20025;-96
2023/04/25 11:22:52;;;;;;;8.65;4.45;;;;;;;;;;5004325;28;20032;-96
2023/04/25 11:25:23;;;;;;;7.32;3.50;;;;;;;;;;5005217;28;20026;-96
2023/04/25 11:27:53;;;;;;;13.83;6.03;;;;;;;;;;5003228;28;20026;-96
2023/04/25 11:30:21;;;;;;;11.80;6.68;;;;;;;;;;5003756;28;20025;-96
2023/04/25 11:33:04;;;;;;;7.88;4.72;;;;;;;;;;5003368;28;20049;-96
2023/04/25 11:35:33;;;;;;;4.80;2.92;;;;;;;;;;5003435;28;20091;-96
2023/04/25 11:38:02;;;;;;;4.20;2.92;;;;;;;;;;5000866;28;20025;-96
2023/04/25 11:40:31;;;;;;;7.95;3.08;;;;;;;;;;5001960;28;20033;-96
2023/04/25 11:43:10;;;;;;;6.80;4.28;;;;;;;;;;5001070;28;20029;-95
2023/04/25 11:45:53;;;;;;;6.15;2.72;;;;;;;;;;5001413;28;20476;-96
2023/04/25 11:48:20;;;;;;;8.95;2.78;;;;;;;;;;5003111;28;20366;-96
2023/04/25 11:50:55;;;;;;;5.00;2.20;;;;;;;;;;5001295;28;20026;-96
2023/04/25 11:53:21;;;;;;;8.25;3.92;;;;;;;;;;5002468;28;20037;-96
2023/04/25 11:55:50;;;;;;;9.20;4.18;;;;;;;;;;5003092;28;20484;-96
2023/04/25 11:58:24;;;;;;;4.93;2.92;;;;;;;;;;5002989;28;20494;-96
2023/04/25 12:00:52;;;;;;;6.38;3.00;;;;;;;;;;5005492;28;20473;-96
2023/04/25 12:03:25;;;;;;;5.25;3.53;;;;;;;;;;5001151;28;20030;-96
2023/04/25 12:06:21;;;;;;;15.88;4.53;;;;;;;;;;5023601;28;20036;-96
2023/04/25 12:09:03;;;;;;;13.10;4.00;;;;;;;;;;4989806;28;20030;-93
2023/04/25 12:11:32;;;;;;;5.82;2.80;;;;;;;;;;4998603;28;20026;-94
2023/04/25 12:14:07;;;;;;;9.73;3.70;;;;;;;;;;4997950;28;20052;-94
2023/04/25 12:16:44;;;;;;;5.55;3.40;;;;;;;;;;4998386;28;20514;-94
2023/04/25 12:19:10;;;;;;;36.08;4.65;;;;;;;;;;4998142;28;20049;-96
2023/04/25 12:21:39;;;;;;;8.05;2.80;;;;;;;;;;4999009;28;20021;-94
2023/04/25 12:24:15;;;;;;;11.63;2.72;;;;;;;;;;4998043;28;20025;-94
2023/04/25 12:26:48;;;;;;;5.28;2.30;;;;;;;;;;4998168;28;20030;-94
2023/04/25 12:29:33;;;;;;;6.38;2.88;;;;;;;;;;4998253;28;20048;-94
2023/04/25 12:32:01;;;;;;;4.22;1.88;;;;;;;;;;4998408;28;20066;-94
2023/04/25 12:34:28;;;;;;;4.90;2.40;;;;;;;;;;4998019;28;20084;-95
2023/04/25 12:37:02;;;;;;;5.22;2.50;;;;;;;;;;4998385;28;20022;-94
2023/04/25 12:39:31;;;;;;;5.13;2.42;;;;;;;;;;4998363;28;20427;-94
2023/04/25 12:42:05;;;;;;;4.15;3.00;;;;;;;;;;4998485;28;20046;-94
2023/04/25 12:44:31;;;;;;;7.03;3.30;;;;;;;;;;4998011;28;20022;-94
2023/04/25 12:46:59;;;;;;;4.28;2.40;;;;;;;;;;4998579;28;20468;-94
2023/04/25 12:49:34;;;;;;;6.47;2.50;;;;;;;;;;4997868;28;20025;-94
2023/04/25 12:52:00;;;;;;;4.60;2.30;;;;;;;;;;4998953;28;20448;-93
2023/04/25 12:54:27;;;;;;;7.30;2.88;;;;;;;;;;4997538;28;20548;-95
2023/04/25 12:56:53;;;;;;;5.13;2.72;;;;;;;;;;4997697;28;20022;-93
2023/04/25 12:59:22;;;;;;;6.13;2.40;;;;;;;;;;4997846;28;20168;-94
2023/04/25 13:01:50;;;;;;;4.88;2.38;;;;;;;;;;4997652;28;20403;-94
2023/04/25 13:04:21;;;;;;;5.90;2.10;;;;;;;;;;4997494;28;20076;-94
2023/04/25 13:06:50;;;;;;;3.77;1.97;;;;;;;;;;4998523;28;20479;-93
2023/04/25 13:09:24;;;;;;;5.43;2.17;;;;;;;;;;4997828;28;20022;-94
2023/04/25 13:11:52;;;;;;;7.22;1.70;;;;;;;;;;4997036;28;20468;-94
2023/04/25 13:14:21;;;;;;;3.88;1.55;;;;;;;;;;4998817;28;20049;-95
2023/04/25 13:16:54;;;;;;;4.57;1.77;;;;;;;;;;4998171;28;20022;-94
2023/04/25 13:19:21;;;;;;;3.45;1.83;;;;;;;;;;4997718;28;20464;-94
2023/04/25 13:21:47;;;;;;;2.67;1.40;;;;;;;;;;4997822;28;20030;-94
2023/04/25 13:24:13;;;;;;;4.35;1.98;;;;;;;;;;4997456;28;20037;-95
2023/04/25 13:26:41;;;;;;;4.80;2.38;;;;;;;;;;4996755;28;20030;-95
2023/04/25 13:29:10;;;;;;;4.68;1.85;;;;;;;;;;4998300;28;20022;-94
2023/04/25 13:31:39;;;;;;;5.90;1.83;;;;;;;;;;4997438;28;20469;-95
2023/04/25 13:34:14;;;;;;;4.05;2.05;;;;;;;;;;4998212;28;20030;-94
2023/04/25 13:36:43;;;;;;;4.18;1.98;;;;;;;;;;4997197;28;20032;-95
2023/04/25 13:39:12;;;;;;;4.05;2.13;;;;;;;;;;4997264;28;20026;-95
2023/04/25 13:41:40;;;;;;;3.47;1.60;;;;;;;;;;4997337;28;20052;-94
2023/04/25 13:44:14;;;;;;;5.22;2.08;;;;;;;;;;4997112;28;20451;-94
2023/04/25 13:46:42;;;;;;;4.93;2.38;;;;;;;;;;4997161;28;20018;-94
2023/04/25 13:49:11;;;;;;;4.20;2.28;;;;;;;;;;4996947;28;20548;-94
2023/04/25 13:51:54;;;;;;;4.00;2.28;;;;;;;;;;4996986;28;20022;-94
2023/04/25 13:54:22;;;;;;;6.50;2.67;;;;;;;;;;4997842;28;20033;-94
2023/04/25 13:56:52;;;;;;;6.32;2.60;;;;;;;;;;4997291;28;20060;-94
2023/04/25 13:59:21;;;;;;;8.40;3.00;;;;;;;;;;4997204;28;20473;-95
2023/04/25 14:01:47;;;;;;;7.43;2.30;;;;;;;;;;5016826;23;20066;-94
2023/04/25 14:04:14;;;;;;;4.00;1.95;;;;;;;;;;4985454;28;20038;-92
2023/04/25 14:06:43;;;;;;;5.25;2.20;;;;;;;;;;5000897;23;20006;-95
2023/04/25 14:09:10;;;;;;;33.55;4.57;;;;;;;;;;4964280;28;20045;-96
2023/04/25 14:11:39;;;;;;;6.75;2.22;;;;;;;;;;4957792;28;20035;-92
2023/04/25 14:14:07;;;;;;;6.10;2.00;;;;;;;;;;4948073;28;20035;-91
2023/04/25 14:16:34;;;;;;;5.20;2.20;;;;;;;;;;4948957;28;20035;-89
2023/04/25 14:19:00;;;;;;;5.72;2.30;;;;;;;;;;4945829;28;20027;-89
2023/04/25 14:21:28;;;;;;;7.38;2.60;;;;;;;;;;4944990;28;20125;-89
2023/04/25 14:23:54;;;;;;;6.03;2.55;;;;;;;;;;4958599;28;20034;-90
2023/04/25 14:26:20;;;;;;;14.93;4.15;;;;;;;;;;4963699;28;20023;-89
2023/04/25 14:28:47;;;;;;;8.60;5.22;;;;;;;;;;4943537;28;20149;-90
2023/04/25 14:31:13;;;;;;;14.85;7.03;;;;;;;;;;4961498;28;20026;-90
2023/04/25 14:33:42;;;;;;;11.45;7.68;;;;;;;;;;4945493;28;20559;-90
2023/04/25 14:36:08;;;;;;;10.13;5.35;;;;;;;;;;4944765;28;20031;-90
2023/04/25 14:38:34;;;;;;;8.23;4.22;;;;;;;;;;4944749;28;20031;-90
2023/04/25 14:41:01;;;;;;;8.68;4.25;;;;;;;;;;4949435;28;20030;-88
2023/04/25 14:43:27;;;;;;;5.63;3.72;;;;;;;;;;4949365;28;20532;-90
2023/04/25 14:45:54;;;;;;;8.93;4.00;;;;;;;;;;4948581;28;20033;-88
2023/04/25 14:48:20;;;;;;;6.95;3.30;;;;;;;;;;4950122;28;20093;-89
2023/04/25 14:50:46;;;;;;;5.68;2.03;;;;;;;;;;4950808;28;20027;-90
2023/04/25 14:53:13;;;;;;;5.18;2.20;;;;;;;;;;4948831;28;20502;-89
2023/04/25 14:55:40;;;;;;;3.92;2.40;;;;;;;;;;4947642;28;20544;-90
2023/04/25 14:58:06;;;;;;;7.47;2.55;;;;;;;;;;4947137;28;20041;-89
2023/04/25 15:00:33;;;;;;;5.18;2.60;;;;;;;;;;4965399;28;20039;-89
2023/04/25 15:02:59;;;;;;;5.80;2.53;;;;;;;;;;4964736;28;20066;-91
2023/04/25 15:05:26;;;;;;;5.05;2.30;;;;;;;;;;4954080;28;20412;-91
2023/04/25 15:07:52;;;;;;;4.20;2.33;;;;;;;;;;4940655;28;20047;-90
2023/04/25 15:10:19;;;;;;;6.38;2.90;;;;;;;;;;4923080;29;20038;-90
2023/04/25 15:12:46;;;;;;;6.53;3.00;;;;;;;;;;4928735;28;20035;-90
2023/04/25 15:15:13;;;;;;;6.50;2.78;;;;;;;;;;4929878;29;20031;-90
2023/04/25 15:17:39;;;;;;;6.20;2.47;;;;;;;;;;4934018;28;20023;-89
2023/04/25 15:20:07;;;;;;;4.82;2.67;;;;;;;;;;4929114;29;20054;-90